Unalaska Airport
PADU : rendu visible

Aérodrome :











RETROUVEZ-NOUS SUR...

 
LOGIN :

S'inscrire | Disclaimer

   EN    FR    IT 

 









Légende :    VFR   VFR Marginal   IFR   IFR Intensif   IFR Très Intensif
Visi : 
Plafond : 
>= 8 km
>= 3000ft
5 à 8 km
1000 à 3000 ft
1500m à 5 km
500 à 1000 ft
800 à 1500m
200 à 500 ft
< 800m
< 200 ft
Symboles :   Orages  Brouillard  Fortes neiges  Fortes précipitations  Vent > 20 kt






- Altitude de l'aérodrome : 22 ft
- Code IATA : DUT


PADU - Unalaska

DERNIER METAR :
  • 072256Z 31012KT 10SM -SN BKN034 BKN042 01/M05 A3017 RMK AO2 SNE26B46 SLP220 P0000 T00061050

METARs EXPIRÉS :
  • 072215Z 31012KT 10SM -SN BKN032 OVC042 01/M06 A3016 RMK AO2 P0000
  • 072156Z 31010KT 10SM -SN BKN029 OVC038 01/M06 A3016 RMK AO2 RAB28E48SNB48 SLP218 P0000 T00061056
  • 072056Z 33014KT 10SM SCT042 BKN050 01/M05 A3015 RMK AO2 SLP215 60000 T00111050 51004

TAF PADU
Valide du 08 à 00h jusqu'au 09 à 00h UTC


072325Z 0800/0824 31012KT P6SM -SHSN FEW007 SCT025 BKN035
TEMPO 0800/0804 BKN025
FM080900 25005KT P6SM SCT050 SCT250



MET'MAP, la Météo Aéronautique d'un coup d'oeil ! - Copyright ORBIFLY Décembre 2007 - Disclaimer

ORBIFLY MET'MAP TEAM :

Programmation & Développement : Alexandra Zaïnal
Sur une idée originale de : Baudouin d'Aumeries
Assistance à la programmation : Marc-Olivier Méhu
Soutien technique & logistique : Manuel Goepfert

Contact : metmap@orbifly.com




SOURCES & CREDITS :

   NOAA       Earth
Advisory